Terminal Aerodrome Forecast
Issued by NWS

Home | Current Version | Previous Version | Text Only | Print | Product List | Glossary On
Versions: 1 2 3 4 5 6 7 8 9 10 11 12 13 14 15 16 17 18 19 20 21 22 23 24 25 26
391
FTAK31 PANC 231732
TAFAEN
TAF
PAEN 231732Z 2318/2418 04003KT P6SM OVC050
     FM241500 04003KT 5SM -RA BR SCT015 BKN025=

USA.gov is the U.S. government's official web portal to all federal, state and local government web resources and services.